Time;durP1;ratioP1;P1;durP2;ratioP2;P2;SDS_P1;SDS_P2;PMS_P1;PMS_P2;Temp;Humidity;BMP_temperature;BMP_pressure;BME280_temperature;BME280_humidity;BME280_pressure;Samples;Min_cycle;Max_cycle;Signal;HPM_P1;HPM_P2
2021/12/21 08:12:40;;;;;;;22.03;13.43;;;-3.10;99.90;;;;;;5111308;27;20363;-61
2021/12/21 08:15:08;;;;;;;23.47;16.10;;;-3.00;99.90;;;;;;5111565;28;20445;-63
2021/12/21 08:17:34;;;;;;;22.57;13.00;;;-3.00;99.90;;;;;;5111732;28;20039;-60
2021/12/21 08:19:59;;;;;;;24.52;13.88;;;-3.00;99.90;;;;;;5111438;28;20380;-61
2021/12/21 08:22:25;;;;;;;22.83;12.70;;;-3.00;99.90;;;;;;5110259;28;20100;-60
2021/12/21 08:24:51;;;;;;;19.52;11.55;;;-3.00;99.90;;;;;;5111359;28;20475;-61
2021/12/21 08:27:17;;;;;;;24.80;12.90;;;-3.00;99.90;;;;;;5111003;28;20526;-61
2021/12/21 08:29:42;;;;;;;21.58;12.35;;;-3.00;99.90;;;;;;5110181;28;20048;-60
2021/12/21 08:32:09;;;;;;;18.75;11.80;;;-2.90;99.90;;;;;;5111034;28;20048;-60
2021/12/21 08:34:34;;;;;;;;;;;-2.90;99.90;;;;;;5111810;28;20143;-60
2021/12/21 08:37:00;;;;;;;19.87;10.87;;;-2.90;99.90;;;;;;5111069;28;19963;-61
2021/12/21 08:39:27;;;;;;;17.33;10.55;;;-2.90;99.90;;;;;;5111730;28;20384;-61
2021/12/21 08:41:57;;;;;;;;;;;-2.90;99.90;;;;;;5111301;28;20116;-62
2021/12/21 08:44:27;;;;;;;18.10;10.53;;;-2.80;99.90;;;;;;5104968;28;20322;-62
2021/12/21 08:46:55;;;;;;;18.17;10.47;;;-2.80;99.90;;;;;;5098075;28;20492;-61
2021/12/21 08:49:21;;;;;;;17.10;10.17;;;-2.80;99.90;;;;;;5110710;28;20056;-62
2021/12/21 08:51:46;;;;;;;16.33;10.00;;;-2.80;99.90;;;;;;5109186;28;20058;-62
2021/12/21 08:54:13;;;;;;;18.65;10.80;;;-2.70;99.90;;;;;;5093369;28;20387;-62
2021/12/21 08:56:39;;;;;;;18.37;11.00;;;-2.70;99.90;;;;;;5110397;28;20452;-63
2021/12/21 08:59:04;;;;;;;20.38;11.30;;;-2.70;99.90;;;;;;5111161;28;20089;-61
2021/12/21 09:01:30;;;;;;;20.08;10.90;;;-2.60;99.90;;;;;;5110830;28;20519;-62
2021/12/21 09:03:57;;;;;;;18.80;10.65;;;-2.60;99.90;;;;;;5103761;28;20041;-63
2021/12/21 09:06:24;;;;;;;20.67;11.90;;;-2.60;99.90;;;;;;5100563;28;20497;-63
2021/12/21 09:09:09;;;;;;;24.93;12.33;;;-2.50;99.90;;;;;;5097164;28;20086;-62
2021/12/21 09:12:27;;;;;;;21.10;11.50;;;-2.50;99.90;;;;;;5094569;28;20052;-62
2021/12/21 09:14:53;;;;;;;21.70;11.43;;;-2.50;99.90;;;;;;5100785;28;20047;-62
2021/12/21 09:17:18;;;;;;;26.05;13.43;;;-2.40;99.90;;;;;;5098896;28;20085;-61
2021/12/21 09:19:44;;;;;;;25.73;15.40;;;-2.40;99.90;;;;;;5098890;28;20128;-62
2021/12/21 09:22:10;;;;;;;26.27;15.27;;;-2.30;99.90;;;;;;5096900;28;20037;-62
2021/12/21 09:24:36;;;;;;;25.45;14.63;;;-2.30;99.90;;;;;;5084548;28;20045;-62
2021/12/21 09:27:02;;;;;;;;;;;-2.20;99.90;;;;;;5086785;28;20044;-63
2021/12/21 09:29:27;;;;;;;26.43;15.03;;;-2.20;99.90;;;;;;5086248;28;19924;-63
2021/12/21 09:31:53;;;;;;;27.92;16.65;;;-2.10;99.90;;;;;;5083496;28;20110;-62
2021/12/21 09:34:19;;;;;;;27.65;16.58;;;-2.10;99.90;;;;;;5086762;28;20050;-62
2021/12/21 09:36:44;;;;;;;25.92;15.20;;;-2.00;99.90;;;;;;5088455;28;20047;-62
2021/12/21 09:39:10;;;;;;;30.58;17.60;;;-2.00;99.90;;;;;;5095484;28;20403;-62
2021/12/21 09:41:36;;;;;;;30.58;17.30;;;-1.90;99.90;;;;;;5095857;28;20549;-62
2021/12/21 09:44:04;;;;;;;30.27;18.33;;;-1.90;99.90;;;;;;5095964;28;20056;-62
2021/12/21 09:46:30;;;;;;;29.40;17.90;;;-1.90;99.90;;;;;;5095968;28;20048;-62
2021/12/21 09:48:56;;;;;;;31.07;19.67;;;-1.80;99.90;;;;;;5094878;28;20476;-62
2021/12/21 09:51:22;;;;;;;33.10;17.75;;;-1.70;99.90;;;;;;5095451;28;20057;-62
2021/12/21 09:53:50;;;;;;;30.08;17.75;;;-1.60;99.90;;;;;;5095283;28;20047;-61
2021/12/21 09:56:18;;;;;;;29.77;18.00;;;-1.50;99.90;;;;;;5095406;28;20052;-62
2021/12/21 09:58:44;;;;;;;26.90;16.67;;;-1.40;99.90;;;;;;5094711;28;20483;-61
2021/12/21 10:01:10;;;;;;;32.63;17.87;;;-1.40;99.90;;;;;;5096085;28;20052;-61
2021/12/21 10:03:36;;;;;;;31.83;17.42;;;-1.30;99.90;;;;;;5095617;28;20058;-61
2021/12/21 10:06:07;;;;;;;30.85;17.15;;;-1.20;99.90;;;;;;5095563;28;20388;-63
2021/12/21 10:08:34;;;;;;;29.33;16.57;;;-1.10;99.90;;;;;;5095486;28;20044;-60
2021/12/21 10:11:00;;;;;;;27.30;16.40;;;-1.00;99.90;;;;;;5094026;28;20064;-60
2021/12/21 10:13:27;;;;;;;30.08;16.10;;;-0.90;99.90;;;;;;5095860;28;20056;-61
2021/12/21 10:15:56;;;;;;;26.37;16.13;;;-0.90;99.90;;;;;;5090802;28;20556;-61
2021/12/21 10:18:24;;;;;;;23.87;15.70;;;-0.80;99.90;;;;;;5095391;28;20052;-61
2021/12/21 10:20:52;;;;;;;27.87;15.53;;;-0.70;99.90;;;;;;5077406;28;20500;-62
2021/12/21 10:23:28;;;;;;;28.80;17.40;;;-0.60;99.90;;;;;;5075002;28;20052;-61
2021/12/21 10:26:04;;;;;;;29.73;16.13;;;-0.60;99.90;;;;;;5079709;28;20140;-62
2021/12/21 10:28:48;;;;;;;28.70;17.08;;;-0.60;99.90;;;;;;5086323;28;20080;-61
2021/12/21 10:31:27;;;;;;;29.53;18.83;;;-0.50;99.90;;;;;;5092637;28;20062;-62
2021/12/21 10:33:55;;;;;;;32.43;19.17;;;-0.50;99.90;;;;;;5094366;28;20048;-61
2021/12/21 10:36:20;;;;;;;23.35;14.45;;;-0.40;99.90;;;;;;5094514;28;20528;-63
2021/12/21 10:38:51;;;;;;;26.55;16.10;;;-0.40;99.90;;;;;;5094955;28;20044;-61
2021/12/21 10:41:20;;;;;;;25.73;15.70;;;-0.20;99.90;;;;;;5094311;28;20453;-62
2021/12/21 10:44:09;;;;;;;25.88;15.07;;;-0.20;99.90;;;;;;5094403;28;20487;-61
2021/12/21 10:46:37;;;;;;;23.77;14.03;;;-0.20;99.90;;;;;;5095331;28;20048;-61
2021/12/21 10:49:14;;;;;;;22.30;13.83;;;-0.10;99.90;;;;;;5095341;28;20101;-61
2021/12/21 10:51:51;;;;;;;20.23;13.40;;;-0.10;99.90;;;;;;5094705;28;20039;-61
2021/12/21 10:54:47;;;;;;;21.88;13.80;;;0.00;99.90;;;;;;5094745;28;20056;-61
2021/12/21 10:57:32;;;;;;;22.27;11.77;;;0.10;99.90;;;;;;5085986;28;20064;-61
2021/12/21 11:00:07;;;;;;;19.63;11.05;;;0.20;99.90;;;;;;5094893;28;20360;-61
2021/12/21 11:02:35;;;;;;;19.88;11.57;;;0.20;99.90;;;;;;5094300;28;20043;-61
2021/12/21 11:05:11;;;;;;;20.27;11.13;;;0.30;99.90;;;;;;5094555;28;20060;-63
2021/12/21 11:08:04;;;;;;;23.88;12.00;;;0.40;99.90;;;;;;5084230;28;20105;-61
2021/12/21 11:10:32;;;;;;;20.98;10.27;;;0.50;99.90;;;;;;5076156;28;20068;-61
2021/12/21 11:13:08;;;;;;;20.80;11.02;;;0.60;99.90;;;;;;5082580;28;20048;-61
2021/12/21 11:15:56;;;;;;;22.88;11.43;;;0.70;99.90;;;;;;5083173;28;20048;-60
2021/12/21 11:18:23;;;;;;;20.90;11.93;;;0.70;99.90;;;;;;5090089;28;20177;-61
2021/12/21 11:20:55;;;;;;;18.40;10.45;;;0.80;99.90;;;;;;5091056;28;20484;-60
2021/12/21 11:23:23;;;;;;;18.65;10.65;;;0.80;99.90;;;;;;5081522;28;20074;-62
2021/12/21 11:25:53;;;;;;;21.08;10.57;;;0.90;99.90;;;;;;5091201;28;20052;-61
2021/12/21 11:28:27;;;;;;;15.32;10.40;;;0.90;99.90;;;;;;5093443;28;20044;-61
2021/12/21 11:30:58;;;;;;;21.27;10.35;;;0.90;99.90;;;;;;5093870;28;20040;-61
2021/12/21 11:33:26;;;;;;;18.77;10.02;;;0.90;99.90;;;;;;5094122;28;20074;-60
2021/12/21 11:38:42;;;;;;;17.10;8.73;;;1.00;99.90;;;;;;5064335;28;20048;-60
2021/12/21 11:41:08;;;;;;;16.05;9.60;;;1.10;99.90;;;;;;5081350;28;20506;-60
2021/12/21 11:43:46;;;;;;;12.10;8.77;;;1.20;99.90;;;;;;5082768;28;20055;-61
2021/12/21 11:46:15;;;;;;;16.98;9.48;;;1.20;99.90;;;;;;5081818;28;20543;-61
2021/12/21 11:48:55;;;;;;;16.83;9.65;;;1.20;99.90;;;;;;5079506;28;20048;-62
2021/12/21 11:51:27;;;;;;;18.67;9.20;;;1.20;99.90;;;;;;5082939;28;20048;-61
2021/12/21 11:53:55;;;;;;;18.33;8.90;;;1.20;99.90;;;;;;5083184;28;20059;-61
2021/12/21 11:56:24;;;;;;;16.70;8.95;;;1.30;99.90;;;;;;5084539;28;20055;-62
2021/12/21 11:58:52;;;;;;;13.55;8.48;;;1.40;99.90;;;;;;5093632;28;20128;-61
2021/12/21 12:01:27;;;;;;;19.15;9.38;;;1.40;99.90;;;;;;5093524;28;20130;-61
2021/12/21 12:04:22;;;;;;;15.85;8.85;;;1.40;99.90;;;;;;5094438;28;20373;-62
2021/12/21 12:06:57;;;;;;;21.33;11.07;;;1.50;99.90;;;;;;5087302;28;20413;-62
2021/12/21 12:09:32;;;;;;;18.52;9.88;;;1.60;99.90;;;;;;5089286;28;20137;-60
2021/12/21 12:16:13;;;;;;;16.05;9.48;;;1.70;99.90;;;;;;5110804;28;20053;-62
2021/12/21 12:18:44;;;;;;;16.63;9.27;;;1.70;99.90;;;;;;5121742;28;20047;-61
2021/12/21 12:21:25;;;;;;;16.27;9.23;;;1.80;99.90;;;;;;5129428;28;20126;-62
2021/12/21 12:23:53;;;;;;;16.33;8.30;;;1.80;99.90;;;;;;5134301;28;20050;-62
2021/12/21 12:26:27;;;;;;;16.85;8.25;;;1.90;99.90;;;;;;5116128;28;20051;-62
2021/12/21 12:28:55;;;;;;;14.50;8.48;;;1.90;99.90;;;;;;5112719;28;20039;-61
2021/12/21 12:31:32;;;;;;;27.55;19.10;;;1.90;99.90;;;;;;5096135;28;20051;-63
2021/12/21 12:33:58;;;;;;;17.70;9.52;;;2.00;99.90;;;;;;5082456;28;20058;-61
2021/12/21 12:36:49;;;;;;;20.05;10.65;;;2.00;99.90;;;;;;5113216;28;20089;-61
2021/12/21 12:39:41;;;;;;;13.48;7.65;;;2.00;99.90;;;;;;5112934;28;20463;-61
2021/12/21 12:42:18;;;;;;;13.23;8.30;;;2.10;99.90;;;;;;5099429;28;20059;-63
2021/12/21 12:45:00;;;;;;;15.40;8.52;;;2.10;99.90;;;;;;5054035;28;20048;-63
2021/12/21 12:47:42;;;;;;;16.55;8.70;;;2.10;99.90;;;;;;5071503;28;20074;-62
2021/12/21 12:50:21;;;;;;;14.40;8.50;;;2.10;99.90;;;;;;5090512;28;20120;-63
2021/12/21 12:52:53;;;;;;;16.77;8.60;;;2.10;99.90;;;;;;5090630;28;20127;-62
2021/12/21 12:55:20;;;;;;;17.33;8.55;;;2.10;99.90;;;;;;5073993;28;20334;-61
2021/12/21 12:57:53;;;;;;;14.52;7.95;;;2.10;99.90;;;;;;5091816;28;20091;-61
2021/12/21 13:00:30;;;;;;;14.07;7.82;;;2.10;99.90;;;;;;5078061;28;20044;-61
2021/12/21 13:02:57;;;;;;;;;;;2.00;99.90;;;;;;5078349;28;20508;-61
2021/12/21 13:06:10;;;;;;;19.02;8.27;;;2.10;99.90;;;;;;5094464;28;19969;-61
2021/12/21 13:08:39;;;;;;;16.23;7.72;;;2.20;99.90;;;;;;5040708;28;20051;-63
2021/12/21 13:11:07;;;;;;;16.10;7.35;;;2.30;99.90;;;;;;5094257;28;20185;-62
2021/12/21 13:13:44;;;;;;;12.80;7.85;;;2.30;99.90;;;;;;5094207;28;20052;-62
2021/12/21 13:16:20;;;;;;;16.35;8.57;;;2.30;99.90;;;;;;5094598;28;20044;-62
2021/12/21 13:18:47;;;;;;;13.73;7.55;;;2.30;99.90;;;;;;5094765;28;20051;-62
2021/12/21 13:21:28;;;;;;;14.38;7.68;;;2.30;99.90;;;;;;5094127;28;20523;-64
2021/12/21 13:24:13;;;;;;;15.35;7.45;;;2.30;99.90;;;;;;5076710;28;20054;-61
2021/12/21 13:26:48;;;;;;;14.27;7.72;;;2.30;99.90;;;;;;5073841;28;20488;-62
2021/12/21 13:29:18;;;;;;;14.63;7.53;;;2.30;99.90;;;;;;5088604;28;20065;-61
2021/12/21 13:31:45;;;;;;;14.68;7.57;;;2.30;99.90;;;;;;5116551;28;20043;-60
2021/12/21 13:34:11;;;;;;;18.10;7.68;;;2.40;99.90;;;;;;5116720;28;20052;-61
2021/12/21 13:36:41;;;;;;;12.63;6.90;;;2.30;99.90;;;;;;5116433;28;20526;-60
2021/12/21 13:39:24;;;;;;;15.55;7.53;;;2.30;99.90;;;;;;5117519;28;20090;-60
2021/12/21 13:41:53;;;;;;;15.70;8.10;;;2.30;99.90;;;;;;5117493;28;20087;-61
2021/12/21 13:44:37;;;;;;;13.85;7.40;;;2.40;99.90;;;;;;5117275;28;20364;-61
2021/12/21 13:47:21;;;;;;;14.48;7.63;;;2.30;99.90;;;;;;5097812;28;20479;-60
2021/12/21 13:50:14;;;;;;;15.75;7.78;;;2.30;99.90;;;;;;5116719;28;20047;-61
2021/12/21 13:52:53;;;;;;;15.95;7.53;;;2.30;99.90;;;;;;5087729;28;20060;-61
2021/12/21 13:55:29;;;;;;;12.80;7.18;;;2.20;99.90;;;;;;5098541;28;20067;-61
2021/12/21 13:57:57;;;;;;;12.53;7.20;;;2.20;99.90;;;;;;5116870;28;20083;-61
2021/12/21 14:00:25;;;;;;;11.77;7.18;;;2.30;99.90;;;;;;5098891;28;20349;-61
2021/12/21 14:03:01;;;;;;;15.70;7.25;;;2.20;99.90;;;;;;5098057;28;20108;-62
2021/12/21 14:05:41;;;;;;;17.08;7.00;;;2.20;99.90;;;;;;5116245;28;20404;-60
2021/12/21 14:08:07;;;;;;;13.90;6.75;;;2.20;99.90;;;;;;5115745;28;20173;-60
2021/12/21 14:10:41;;;;;;;19.80;7.28;;;2.20;99.90;;;;;;5097923;28;20484;-61
2021/12/21 14:13:07;;;;;;;14.38;7.70;;;2.20;99.90;;;;;;5115759;28;20500;-61
2021/12/21 14:15:48;;;;;;;16.85;9.20;;;2.20;99.90;;;;;;5124693;27;20047;-61
2021/12/21 14:18:31;;;;;;;16.52;9.48;;;2.20;99.90;;;;;;5118754;27;20138;-61
2021/12/21 14:21:11;;;;;;;16.27;9.20;;;2.20;99.90;;;;;;5112572;28;20039;-61
2021/12/21 14:23:41;;;;;;;16.55;8.27;;;2.20;99.90;;;;;;5112639;28;20044;-61
2021/12/21 14:26:17;;;;;;;15.68;8.05;;;2.20;99.90;;;;;;5115036;28;20046;-61
2021/12/21 14:28:55;;;;;;;17.58;8.07;;;2.20;99.90;;;;;;5118785;27;20043;-61
2021/12/21 14:31:32;;;;;;;14.63;7.07;;;2.20;99.90;;;;;;5125868;27;20050;-62
2021/12/21 14:34:01;;;;;;;12.98;6.90;;;2.10;99.90;;;;;;5126030;27;20048;-60
2021/12/21 14:36:27;;;;;;;13.43;6.95;;;2.10;99.90;;;;;;5119498;27;20055;-60
2021/12/21 14:39:03;;;;;;;15.88;7.80;;;2.10;99.90;;;;;;5123557;27;20043;-61
2021/12/21 14:41:37;;;;;;;17.60;7.73;;;2.10;99.90;;;;;;5101574;27;20069;-60
2021/12/21 14:44:12;;;;;;;12.55;7.47;;;2.10;99.90;;;;;;5123681;27;20283;-61
2021/12/21 14:46:52;;;;;;;16.05;8.25;;;2.00;99.90;;;;;;5122504;27;20071;-60
2021/12/21 14:49:35;;;;;;;15.45;8.40;;;2.00;99.90;;;;;;5123140;27;20498;-60
2021/12/21 14:52:18;;;;;;;14.38;8.02;;;2.00;99.90;;;;;;5122604;27;20047;-60
2021/12/21 14:54:52;;;;;;;17.60;8.45;;;1.90;99.90;;;;;;5095867;28;20107;-61
2021/12/21 14:58:00;;;;;;;18.52;9.55;;;1.90;99.90;;;;;;5122291;27;20112;-61
2021/12/21 15:00:28;;;;;;;13.15;8.50;;;1.90;99.90;;;;;;5093203;28;20499;-61
2021/12/21 15:02:56;;;;;;;15.95;8.57;;;1.80;99.90;;;;;;5121568;27;20043;-61
2021/12/21 15:05:34;;;;;;;16.63;8.80;;;1.80;99.90;;;;;;5123423;27;20039;-61
2021/12/21 15:08:03;;;;;;;15.70;8.30;;;1.80;99.90;;;;;;5122368;27;20047;-61
2021/12/21 15:10:32;;;;;;;14.68;8.00;;;1.70;99.90;;;;;;5117066;27;20060;-61
2021/12/21 15:12:58;;;;;;;14.45;8.30;;;1.70;99.90;;;;;;5114406;28;20495;-62
2021/12/21 15:15:24;;;;;;;;;;;1.60;99.90;;;;;;5097158;28;20063;-61
2021/12/21 15:17:51;;;;;;;16.42;7.60;;;1.60;99.90;;;;;;5113870;28;20290;-61
2021/12/21 15:20:22;;;;;;;13.35;7.85;;;1.50;99.90;;;;;;5095949;28;20097;-61
2021/12/21 15:22:49;;;;;;;18.70;7.95;;;1.40;99.90;;;;;;5114488;28;20074;-61
2021/12/21 15:25:15;;;;;;;15.93;7.88;;;1.40;99.90;;;;;;5095935;28;20050;-61
2021/12/21 15:27:42;;;;;;;19.88;9.07;;;1.40;99.90;;;;;;5114510;28;20055;-61
2021/12/21 15:30:10;;;;;;;12.80;8.20;;;1.30;99.90;;;;;;5096462;28;20523;-60
2021/12/21 15:32:36;;;;;;;16.20;8.80;;;1.20;99.90;;;;;;5113812;28;20484;-61
2021/12/21 15:35:04;;;;;;;18.70;9.13;;;1.20;99.90;;;;;;5115642;27;20043;-61
2021/12/21 15:37:29;;;;;;;18.25;9.15;;;1.10;99.90;;;;;;5123245;27;20440;-61
2021/12/21 15:39:56;;;;;;;14.05;9.20;;;1.10;99.90;;;;;;5121941;27;20050;-60
2021/12/21 15:42:22;;;;;;;;;;;1.00;99.90;;;;;;5124340;27;20518;-61
2021/12/21 15:44:51;;;;;;;15.35;8.20;;;1.00;99.90;;;;;;5116908;27;19919;-61
2021/12/21 15:47:19;;;;;;;17.00;8.88;;;0.90;99.90;;;;;;5096133;28;20051;-60
2021/12/21 15:49:50;;;;;;;16.83;9.15;;;0.90;99.90;;;;;;5113922;28;20104;-62
2021/12/21 15:52:16;;;;;;;17.27;9.07;;;0.80;99.90;;;;;;5113873;28;20046;-61
2021/12/21 15:54:43;;;;;;;17.27;9.50;;;0.80;99.90;;;;;;5114046;28;20047;-61
2021/12/21 15:57:11;;;;;;;15.90;8.82;;;0.80;99.90;;;;;;5118956;27;20042;-61
2021/12/21 15:59:37;;;;;;;16.00;8.90;;;0.70;99.90;;;;;;5106184;27;20118;-61
2021/12/21 16:02:03;;;;;;;15.63;9.00;;;0.60;99.90;;;;;;5122073;27;20395;-61
2021/12/21 16:04:30;;;;;;;18.48;8.95;;;0.60;99.90;;;;;;5123822;27;20493;-62
2021/12/21 16:06:55;;;;;;;17.92;9.38;;;0.50;99.90;;;;;;5123709;27;20044;-61
2021/12/21 16:09:21;;;;;;;18.35;9.38;;;0.50;99.90;;;;;;5121985;27;20058;-62
2021/12/21 16:11:47;;;;;;;17.48;8.80;;;0.40;99.90;;;;;;5124054;28;20046;-62
2021/12/21 16:14:14;;;;;;;20.63;9.80;;;0.40;99.90;;;;;;5104697;28;20047;-62
2021/12/21 16:16:41;;;;;;;17.23;9.50;;;0.40;99.90;;;;;;5107067;28;20087;-60
2021/12/21 16:19:08;;;;;;;17.50;9.30;;;0.30;99.90;;;;;;5134356;28;20091;-62
2021/12/21 16:21:34;;;;;;;18.17;9.20;;;0.20;99.90;;;;;;5134113;28;20073;-62
2021/12/21 16:24:00;;;;;;;18.70;9.20;;;0.20;99.90;;;;;;5115596;28;20052;-62
2021/12/21 16:26:27;;;;;;;17.70;9.30;;;0.20;99.90;;;;;;5113613;28;20130;-61
2021/12/21 16:28:54;;;;;;;18.70;9.30;;;0.10;99.90;;;;;;5114077;28;20051;-62
2021/12/21 16:31:21;;;;;;;14.80;8.80;;;0.10;99.90;;;;;;5113792;28;20039;-62
2021/12/21 16:33:47;;;;;;;18.88;9.32;;;0.00;99.90;;;;;;5106595;27;20062;-61
2021/12/21 16:36:13;;;;;;;16.35;8.90;;;0.00;99.90;;;;;;5126314;27;20047;-62
2021/12/21 16:38:39;;;;;;;18.73;9.57;;;0.00;99.90;;;;;;5126057;27;20135;-62
2021/12/21 16:41:06;;;;;;;23.30;9.60;;;-0.10;99.90;;;;;;5126013;27;20038;-63
2021/12/21 16:43:33;;;;;;;17.80;9.52;;;-0.10;99.90;;;;;;5105199;27;20043;-63
2021/12/21 16:46:04;;;;;;;18.15;9.90;;;-0.10;99.90;;;;;;5113868;27;20114;-60
2021/12/21 16:48:31;;;;;;;18.48;9.25;;;-0.20;99.90;;;;;;5128484;27;20488;-61
2021/12/21 16:50:57;;;;;;;24.88;10.30;;;-0.20;99.90;;;;;;5110675;27;20050;-63
2021/12/21 16:53:23;;;;;;;20.55;10.07;;;-0.30;99.90;;;;;;5138494;27;20043;-61
2021/12/21 16:55:49;;;;;;;18.42;9.60;;;-0.30;99.90;;;;;;5134788;27;20053;-62
2021/12/21 16:58:16;;;;;;;21.60;9.32;;;-0.40;99.90;;;;;;5107827;28;20122;-62
2021/12/21 17:00:42;;;;;;;16.88;9.70;;;-0.40;99.90;;;;;;5123778;27;20044;-63
2021/12/21 17:03:11;;;;;;;18.13;10.10;;;-0.30;99.90;;;;;;5108586;27;20394;-61
2021/12/21 17:06:24;;;;;;;16.83;10.30;;;-0.40;99.90;;;;;;5099534;28;20050;-64
2021/12/21 17:09:09;;;;;;;17.95;10.05;;;-0.50;99.90;;;;;;5117763;27;20043;-60
2021/12/21 17:11:34;;;;;;;24.60;14.32;;;-0.50;99.90;;;;;;5127467;27;20062;-61
2021/12/21 17:14:00;;;;;;;24.77;13.25;;;-0.50;99.90;;;;;;5125418;27;20055;-62
2021/12/21 17:16:29;;;;;;;22.05;13.57;;;-0.50;99.90;;;;;;5126689;27;20162;-61
2021/12/21 17:18:55;;;;;;;24.07;13.33;;;-0.60;99.90;;;;;;5133774;27;20035;-61
2021/12/21 17:21:21;;;;;;;23.83;13.38;;;-0.60;99.90;;;;;;5119211;27;20047;-62
2021/12/21 17:23:48;;;;;;;26.23;12.45;;;-0.70;99.90;;;;;;5120647;27;20061;-60
2021/12/21 17:26:14;;;;;;;21.67;13.03;;;-0.70;99.90;;;;;;5102357;27;20055;-63
2021/12/21 17:28:39;;;;;;;23.63;14.32;;;-0.70;99.90;;;;;;5119865;27;20051;-60
2021/12/21 17:31:06;;;;;;;23.10;14.55;;;-0.70;99.90;;;;;;5137755;27;20448;-60
2021/12/21 17:33:34;;;;;;;;;;;-0.70;99.90;;;;;;5118796;27;20667;-62
2021/12/21 17:36:06;;;;;;;22.20;12.80;;;-0.80;99.90;;;;;;5136702;27;20047;-61
2021/12/21 17:38:32;;;;;;;24.95;12.98;;;-0.80;99.90;;;;;;5133729;27;20096;-61
2021/12/21 17:40:58;;;;;;;;;;;-0.80;99.90;;;;;;5120045;27;20051;-60
2021/12/21 17:43:24;;;;;;;21.10;11.80;;;-0.80;99.90;;;;;;5118545;27;20287;-61
2021/12/21 17:45:50;;;;;;;27.00;12.10;;;-0.80;99.90;;;;;;5129514;27;20119;-63
2021/12/21 17:48:17;;;;;;;23.42;13.45;;;-0.80;99.90;;;;;;5100596;28;20047;-61
2021/12/21 17:50:43;;;;;;;24.48;14.48;;;-0.80;99.90;;;;;;5097652;28;20054;-64
2021/12/21 17:53:09;;;;;;;29.60;15.07;;;-0.90;99.90;;;;;;5115730;28;20398;-63
2021/12/21 17:55:34;;;;;;;25.52;14.80;;;-0.80;99.90;;;;;;5116017;28;20039;-64
2021/12/21 17:58:00;;;;;;;23.58;14.10;;;-0.80;99.90;;;;;;5116349;28;20100;-65
2021/12/21 18:00:28;;;;;;;26.88;15.20;;;-0.80;99.90;;;;;;5116308;28;20043;-62
2021/12/21 18:02:54;;;;;;;26.80;14.37;;;-0.80;99.90;;;;;;5116517;28;20086;-62
2021/12/21 18:05:20;;;;;;;23.85;14.45;;;-0.80;99.90;;;;;;5097963;28;20113;-63
2021/12/21 18:07:46;;;;;;;24.83;14.00;;;-0.80;99.90;;;;;;5116184;28;20484;-63
2021/12/21 18:10:13;;;;;;;26.60;14.47;;;-0.80;99.90;;;;;;5116092;28;20387;-64
2021/12/21 18:12:40;;;;;;;24.00;14.23;;;-0.80;99.90;;;;;;5115720;28;20043;-63
2021/12/21 18:15:07;;;;;;;26.80;15.03;;;-0.80;99.90;;;;;;5115827;28;20416;-63
2021/12/21 18:17:34;;;;;;;27.23;14.43;;;-0.80;99.90;;;;;;5098012;28;20052;-61
2021/12/21 18:19:59;;;;;;;21.23;14.27;;;-0.80;99.90;;;;;;5098544;28;20052;-61
2021/12/21 18:22:26;;;;;;;24.63;14.00;;;-0.80;99.90;;;;;;5121198;27;20046;-61
2021/12/21 18:24:52;;;;;;;23.23;14.37;;;-0.80;99.90;;;;;;5136586;27;20108;-62
2021/12/21 18:27:18;;;;;;;23.45;14.13;;;-0.80;99.90;;;;;;5136843;27;20043;-61
2021/12/21 18:29:45;;;;;;;24.17;13.80;;;-0.80;99.90;;;;;;5118718;27;20110;-61
2021/12/21 18:32:12;;;;;;;27.07;14.13;;;-0.80;99.90;;;;;;5136020;27;20398;-62
2021/12/21 18:34:38;;;;;;;23.00;14.63;;;-0.90;99.90;;;;;;5136459;27;20548;-62
2021/12/21 18:37:05;;;;;;;25.83;15.65;;;-0.90;99.90;;;;;;5137015;27;20435;-62
2021/12/21 18:39:31;;;;;;;26.43;13.90;;;-0.90;99.90;;;;;;5136177;27;20043;-63
2021/12/21 18:41:57;;;;;;;27.80;14.85;;;-0.90;99.90;;;;;;5108561;27;20054;-61
2021/12/21 18:44:22;;;;;;;29.25;15.63;;;-0.90;99.90;;;;;;5124260;27;20032;-62
2021/12/21 18:46:51;;;;;;;25.92;14.88;;;-0.90;99.90;;;;;;5125475;27;20042;-61
2021/12/21 18:49:18;;;;;;;26.77;15.60;;;-0.90;99.90;;;;;;5132283;27;20055;-62
2021/12/21 18:51:44;;;;;;;22.10;14.25;;;-0.90;99.90;;;;;;5126971;27;20043;-61
2021/12/21 18:54:11;;;;;;;22.92;13.75;;;-0.90;99.90;;;;;;5105019;28;20043;-62
2021/12/21 18:56:37;;;;;;;27.60;16.40;;;-0.90;99.90;;;;;;5096393;28;20420;-61
2021/12/21 18:59:04;;;;;;;25.92;14.35;;;-0.90;99.90;;;;;;5097302;28;20048;-61
2021/12/21 19:01:37;;;;;;;26.13;15.97;;;-0.90;99.90;;;;;;5115714;28;20044;-61
2021/12/21 19:04:10;;;;;;;23.60;15.33;;;-0.90;99.90;;;;;;5118885;27;20051;-61
2021/12/21 19:06:36;;;;;;;22.83;15.23;;;-0.90;99.90;;;;;;5123437;27;20039;-62
2021/12/21 19:09:08;;;;;;;24.07;14.43;;;-0.90;99.90;;;;;;5101729;28;20079;-62
2021/12/21 19:11:34;;;;;;;27.17;13.70;;;-1.00;99.90;;;;;;5114942;28;20044;-62
2021/12/21 19:14:00;;;;;;;22.50;14.38;;;-1.00;99.90;;;;;;5114740;28;20055;-61
2021/12/21 19:16:26;;;;;;;23.73;14.30;;;-0.90;99.90;;;;;;5114793;28;20043;-61
2021/12/21 19:18:52;;;;;;;24.60;14.25;;;-1.00;99.90;;;;;;5097565;27;20058;-62
2021/12/21 19:21:18;;;;;;;23.48;14.98;;;-1.00;99.90;;;;;;5130737;27;20043;-61
2021/12/21 19:23:44;;;;;;;22.23;13.60;;;-0.90;99.90;;;;;;5115845;27;20051;-61
2021/12/21 19:26:10;;;;;;;29.38;17.38;;;-1.00;99.90;;;;;;5135344;27;20111;-61
2021/12/21 19:28:37;;;;;;;52.30;28.75;;;-1.00;99.90;;;;;;5135663;27;20043;-61
2021/12/21 19:31:04;;;;;;;56.80;33.63;;;-1.00;99.90;;;;;;5116978;27;20043;-61
2021/12/21 19:33:29;;;;;;;51.35;30.52;;;-1.00;99.90;;;;;;5116885;27;20047;-61
2021/12/21 19:35:55;;;;;;;44.33;25.20;;;-1.00;99.90;;;;;;5134801;27;20199;-60
2021/12/21 19:38:21;;;;;;;43.03;23.60;;;-1.10;99.90;;;;;;5135024;27;20054;-62
2021/12/21 19:40:49;;;;;;;64.95;34.95;;;-1.10;99.90;;;;;;5135104;27;20040;-61
2021/12/21 19:43:15;;;;;;;56.80;32.10;;;-1.10;99.90;;;;;;5116739;27;20051;-62
2021/12/21 19:45:41;;;;;;;56.67;31.73;;;-1.10;99.90;;;;;;5134858;27;20045;-63
2021/12/21 19:48:07;;;;;;;;;;;-1.10;99.90;;;;;;5117952;27;20115;-61
2021/12/21 19:50:33;;;;;;;50.47;28.07;;;-1.10;99.90;;;;;;5134953;27;20002;-62
2021/12/21 19:53:00;;;;;;;58.35;34.17;;;-1.10;99.90;;;;;;5134598;27;20043;-61
2021/12/21 19:55:26;;;;;;;67.70;36.70;;;-1.10;99.90;;;;;;5134737;27;20122;-61
2021/12/21 19:57:56;;;;;;;63.13;34.43;;;-1.10;99.90;;;;;;5134927;27;20076;-61
2021/12/21 20:00:25;;;;;;;53.43;30.77;;;-1.10;99.90;;;;;;5128739;27;20403;-62
2021/12/21 20:02:51;;;;;;;53.93;30.47;;;-1.10;99.90;;;;;;5128564;27;20050;-63
2021/12/21 20:05:17;;;;;;;46.30;26.80;;;-1.10;99.90;;;;;;5134653;27;20043;-61
2021/12/21 20:07:42;;;;;;;52.47;29.90;;;-1.10;99.90;;;;;;5116352;27;20047;-61
2021/12/21 20:10:13;;;;;;;51.60;28.42;;;-1.10;99.90;;;;;;5134557;27;20123;-61
2021/12/21 20:12:39;;;;;;;41.83;25.23;;;-1.10;99.90;;;;;;5116787;28;20152;-61
2021/12/21 20:15:05;;;;;;;36.75;24.80;;;-1.10;99.90;;;;;;5134336;28;20066;-60
2021/12/21 20:17:31;;;;;;;43.57;25.37;;;-1.10;99.90;;;;;;5123124;28;20054;-63
2021/12/21 20:19:58;;;;;;;48.38;28.80;;;-1.10;99.90;;;;;;5124676;28;20055;-64
2021/12/21 20:22:24;;;;;;;49.50;32.67;;;-1.10;99.90;;;;;;5119089;28;20048;-61
2021/12/21 20:24:50;;;;;;;42.45;29.77;;;-1.10;99.90;;;;;;5113887;28;20078;-61
2021/12/21 20:27:19;;;;;;;43.65;31.20;;;-1.10;99.90;;;;;;5113815;28;20092;-62
2021/12/21 20:29:46;;;;;;;49.47;34.33;;;-1.10;99.90;;;;;;5114261;28;20052;-62
2021/12/21 20:32:12;;;;;;;46.03;31.93;;;-1.10;99.90;;;;;;5114119;28;20051;-64
2021/12/21 20:34:38;;;;;;;48.03;30.90;;;-1.10;99.90;;;;;;5113441;28;20568;-60
2021/12/21 20:37:07;;;;;;;42.92;28.80;;;-1.10;99.90;;;;;;5113896;28;20052;-62
2021/12/21 20:39:33;;;;;;;43.20;27.33;;;-1.10;99.90;;;;;;5113780;28;20047;-61
2021/12/21 20:41:59;;;;;;;36.43;25.23;;;-1.10;99.90;;;;;;5113641;28;20044;-63
2021/12/21 20:44:25;;;;;;;40.35;27.20;;;-1.10;99.90;;;;;;5113958;28;20047;-62
2021/12/21 20:46:51;;;;;;;41.58;26.25;;;-1.10;99.90;;;;;;5100448;28;20043;-62
2021/12/21 20:49:17;;;;;;;54.83;28.03;;;-1.10;99.90;;;;;;5103951;28;20055;-62
2021/12/21 20:51:43;;;;;;;75.10;41.20;;;-1.10;99.90;;;;;;5113550;28;20472;-62
2021/12/21 20:54:09;;;;;;;91.32;49.63;;;-1.10;99.90;;;;;;5113524;28;20051;-62
2021/12/21 20:56:35;;;;;;;78.80;44.45;;;-1.10;99.90;;;;;;5095273;28;20043;-62
2021/12/21 20:59:02;;;;;;;66.78;38.90;;;-1.10;99.90;;;;;;5095481;28;20086;-62
2021/12/21 21:01:28;;;;;;;47.60;31.10;;;-1.10;99.90;;;;;;5114298;28;20047;-61
2021/12/21 21:03:54;;;;;;;47.25;28.00;;;-1.10;99.90;;;;;;5133831;28;20047;-62
2021/12/21 21:06:20;;;;;;;48.60;28.65;;;-1.00;99.90;;;;;;5115859;28;20429;-62
2021/12/21 21:08:46;;;;;;;55.38;32.75;;;-1.00;99.90;;;;;;5130463;28;20043;-62
2021/12/21 21:11:13;;;;;;;49.05;30.55;;;-1.00;99.90;;;;;;5118947;28;20098;-62